
Distance (Route):
Temperature : -3.7°C
Humidity : 0%
Pressure : 0hPa| Receiver | Frames | First received | Last received |
|---|---|---|---|
| WB7NNF | 382 | 2026-08-31 17:22:54 | 2026-08-31 19:38:54 |
| Receiver | Date | Latitude | Longitude | Direction | Speed | Altitude | Climb | Temperature | Humidity | Pressure | Voltage | Killtimer | Uptime | BKT | XDATA |
|---|---|---|---|---|---|---|---|---|---|---|---|---|---|---|---|
| WB7NNF | 2026-08-31 19:38:54 | 48.02463 | -116.75944 | 69° | 33km/h | 4478m | -6.1m/s | -3.7°C | 0% | 0hPa | 0V | 00:00:00 | 00:00:00 | 00:00:00 | |
| WB7NNF | 2026-08-31 19:38:32 | 48.02388 | -116.76206 | 67° | 37km/h | 4615m | -6.2m/s | -4.8°C | 0% | 0hPa | 0V | 00:00:00 | 00:00:00 | 00:00:00 | |
| WB7NNF | 2026-08-31 19:38:11 | 48.02314 | -116.76457 | 67° | 35km/h | 4740m | -6.3m/s | -5.8°C | 0% | 0hPa | 0V | 00:00:00 | 00:00:00 | 00:00:00 | |
| WB7NNF | 2026-08-31 19:37:51 | 48.02249 | -116.76700 | 70° | 33km/h | 4876m | -6.5m/s | -6.6°C | 0% | 0hPa | 0V | 00:00:00 | 00:00:00 | 00:00:00 | |
| WB7NNF | 2026-08-31 19:37:30 | 48.02185 | -116.76945 | 70° | 33km/h | 5006m | -6.6m/s | -7.4°C | 0% | 0hPa | 0V | 00:00:00 | 00:00:00 | 00:00:00 | |
| WB7NNF | 2026-08-31 19:37:10 | 48.02127 | -116.77211 | 75° | 37km/h | 5147m | -6.6m/s | -8.0°C | 0% | 0hPa | 0V | 00:00:00 | 00:00:00 | 00:00:00 | |
| WB7NNF | 2026-08-31 19:36:49 | 48.02077 | -116.77494 | 79° | 37km/h | 5290m | -6.8m/s | -8.6°C | 0% | 0hPa | 0V | 00:00:00 | 00:00:00 | 00:00:00 | |
| WB7NNF | 2026-08-31 19:36:28 | 48.02044 | -116.77769 | 82° | 38km/h | 5427m | -6.8m/s | -9.5°C | 0% | 0hPa | 0V | 00:00:00 | 00:00:00 | 00:00:00 | |
| WB7NNF | 2026-08-31 19:36:08 | 48.02010 | -116.78062 | 78° | 38km/h | 5570m | -6.7m/s | -10.5°C | 0% | 0hPa | 0V | 00:00:00 | 00:00:00 | 00:00:00 | |
| WB7NNF | 2026-08-31 19:35:46 | 48.01964 | -116.78348 | 77° | 37km/h | 5712m | -6.8m/s | -11.5°C | 0% | 0hPa | 0V | 00:00:00 | 00:00:00 | 00:00:00 | |
| WB7NNF | 2026-08-31 19:35:26 | 48.01922 | -116.78642 | 80° | 37km/h | 5848m | -6.7m/s | -12.7°C | 0% | 0hPa | 0V | 00:00:00 | 00:00:00 | 00:00:00 | |
| WB7NNF | 2026-08-31 19:34:48 | 48.01861 | -116.79154 | 82° | 33km/h | 6114m | -6.8m/s | -14.6°C | 0% | 0hPa | 0V | 00:00:00 | 00:00:00 | 00:00:00 | |
| WB7NNF | 2026-08-31 19:34:27 | 48.01802 | -116.79428 | 69° | 42km/h | 6259m | -6.7m/s | -15.3°C | 0% | 0hPa | 0V | 00:00:00 | 00:00:00 | 00:00:00 | |
| WB7NNF | 2026-08-31 19:33:18 | 48.01472 | -116.80390 | 66° | 46km/h | 6737m | -6.9m/s | -17.5°C | 0% | 0hPa | 0V | 00:00:00 | 00:00:00 | 00:00:00 | |
| WB7NNF | 2026-08-31 19:32:58 | 48.01383 | -116.80721 | 71° | 42km/h | 6885m | -6.9m/s | -18.6°C | 0% | 0hPa | 0V | 00:00:00 | 00:00:00 | 00:00:00 | |
| WB7NNF | 2026-08-31 19:32:37 | 48.01299 | -116.81019 | 64° | 42km/h | 7033m | -6.9m/s | -19.6°C | 0% | 0hPa | 0V | 00:00:00 | 00:00:00 | 00:00:00 | |
| WB7NNF | 2026-08-31 19:32:16 | 48.01205 | -116.81291 | 68° | 38km/h | 7173m | -7.1m/s | -20.2°C | 0% | 0hPa | 0V | 00:00:00 | 00:00:00 | 00:00:00 | |
| WB7NNF | 2026-08-31 19:31:56 | 48.01120 | -116.81570 | 62° | 40km/h | 7320m | -7.0m/s | -21.2°C | 0% | 0hPa | 0V | 00:00:00 | 00:00:00 | 00:00:00 | |
| WB7NNF | 2026-08-31 19:31:35 | 48.01021 | -116.81837 | 65° | 42km/h | 7460m | -7.1m/s | -22.3°C | 0% | 0hPa | 0V | 00:00:00 | 00:00:00 | 00:00:00 | |
| WB7NNF | 2026-08-31 19:31:15 | 48.00917 | -116.82136 | 63° | 42km/h | 7607m | -6.9m/s | -23.3°C | 0% | 0hPa | 0V | 00:00:00 | 00:00:00 | 00:00:00 | |
| WB7NNF | 2026-08-31 19:30:54 | 48.00813 | -116.82443 | 65° | 47km/h | 7748m | -7.1m/s | -24.6°C | 0% | 0hPa | 0V | 00:00:00 | 00:00:00 | 00:00:00 | |
| WB7NNF | 2026-08-31 19:30:34 | 48.00697 | -116.82769 | 61° | 47km/h | 7898m | -7.1m/s | -25.9°C | 0% | 0hPa | 0V | 00:00:00 | 00:00:00 | 00:00:00 | |
| WB7NNF | 2026-08-31 19:30:13 | 48.00577 | -116.83082 | 62° | 47km/h | 8041m | -7.2m/s | -26.9°C | 0% | 0hPa | 0V | 00:00:00 | 00:00:00 | 00:00:00 | |
| WB7NNF | 2026-08-31 19:29:53 | 48.00447 | -116.83400 | 61° | 44km/h | 8191m | -7.1m/s | -27.4°C | 0% | 0hPa | 0V | 00:00:00 | 00:00:00 | 00:00:00 | |
| WB7NNF | 2026-08-31 19:29:32 | 48.00334 | -116.83701 | 59° | 46km/h | 8336m | -7.3m/s | -28.4°C | 0% | 0hPa | 0V | 00:00:00 | 00:00:00 | 00:00:00 | |
| WB7NNF | 2026-08-31 19:29:12 | 48.00216 | -116.84025 | 65° | 47km/h | 8488m | -7.4m/s | -29.7°C | 0% | 0hPa | 0V | 00:00:00 | 00:00:00 | 00:00:00 | |
| WB7NNF | 2026-08-31 19:28:51 | 48.00103 | -116.84356 | 65° | 49km/h | 8635m | -7.3m/s | -31.1°C | 0% | 0hPa | 0V | 00:00:00 | 00:00:00 | 00:00:00 | |
| WB7NNF | 2026-08-31 19:28:31 | 47.99993 | -116.84728 | 68° | 49km/h | 8788m | -7.3m/s | -32.3°C | 0% | 0hPa | 0V | 00:00:00 | 00:00:00 | 00:00:00 | |
| WB7NNF | 2026-08-31 19:28:10 | 47.99875 | -116.85065 | 64° | 49km/h | 8935m | -7.2m/s | -33.1°C | 0% | 0hPa | 0V | 00:00:00 | 00:00:00 | 00:00:00 | |
| WB7NNF | 2026-08-31 19:27:50 | 47.99757 | -116.85390 | 61° | 46km/h | 9089m | -7.4m/s | -34.2°C | 0% | 0hPa | 0V | 00:00:00 | 00:00:00 | 00:00:00 | |
| WB7NNF | 2026-08-31 19:27:29 | 47.99648 | -116.85695 | 63° | 42km/h | 9243m | -7.3m/s | -35.5°C | 0% | 0hPa | 0V | 00:00:00 | 00:00:00 | 00:00:00 | |
| WB7NNF | 2026-08-31 19:27:08 | 47.99551 | -116.85989 | 65° | 44km/h | 9391m | -7.2m/s | -36.8°C | 0% | 0hPa | 0V | 00:00:00 | 00:00:00 | 00:00:00 | |
| WB7NNF | 2026-08-31 19:26:48 | 47.99442 | -116.86331 | 67° | 49km/h | 9545m | -7.2m/s | -38.1°C | 0% | 0hPa | 0V | 00:00:00 | 00:00:00 | 00:00:00 | |
| WB7NNF | 2026-08-31 19:26:27 | 47.99334 | -116.86664 | 65° | 47km/h | 9693m | -7.4m/s | -39.3°C | 0% | 0hPa | 0V | 00:00:00 | 00:00:00 | 00:00:00 | |
| WB7NNF | 2026-08-31 19:26:07 | 47.99226 | -116.87004 | 66° | 47km/h | 9851m | -7.5m/s | -40.7°C | 0% | 0hPa | 0V | 00:00:00 | 00:00:00 | 00:00:00 | |
| WB7NNF | 2026-08-31 19:25:46 | 47.99122 | -116.87319 | 64° | 49km/h | 10002m | -7.5m/s | -42.1°C | 0% | 0hPa | 0V | 00:00:00 | 00:00:00 | 00:00:00 | |
| WB7NNF | 2026-08-31 19:25:26 | 47.98993 | -116.87678 | 63° | 53km/h | 10162m | -7.6m/s | -43.4°C | 0% | 0hPa | 0V | 00:00:00 | 00:00:00 | 00:00:00 | |
| WB7NNF | 2026-08-31 19:25:05 | 47.98868 | -116.88038 | 65° | 55km/h | 10316m | -7.7m/s | -44.8°C | 0% | 0hPa | 0V | 00:00:00 | 00:00:00 | 00:00:00 | |
| WB7NNF | 2026-08-31 19:24:45 | 47.98719 | -116.88430 | 60° | 60km/h | 10479m | -7.7m/s | -46.0°C | 0% | 0hPa | 0V | 00:00:00 | 00:00:00 | 00:00:00 | |
| WB7NNF | 2026-08-31 19:24:24 | 47.98580 | -116.88821 | 64° | 60km/h | 10635m | -7.9m/s | -47.3°C | 0% | 0hPa | 0V | 00:00:00 | 00:00:00 | 00:00:00 | |
| WB7NNF | 2026-08-31 19:24:04 | 47.98436 | -116.89230 | 64° | 60km/h | 10805m | -8.1m/s | -48.6°C | 0% | 0hPa | 0V | 00:00:00 | 00:00:00 | 00:00:00 | |
| WB7NNF | 2026-08-31 19:23:43 | 47.98300 | -116.89661 | 65° | 66km/h | 10964m | -7.9m/s | -49.9°C | 0% | 0hPa | 0V | 00:00:00 | 00:00:00 | 00:00:00 | |
| WB7NNF | 2026-08-31 19:23:23 | 47.98147 | -116.90135 | 64° | 66km/h | 11131m | -7.9m/s | -51.2°C | 0% | 0hPa | 0V | 00:00:00 | 00:00:00 | 00:00:00 | |
| WB7NNF | 2026-08-31 19:23:02 | 47.98000 | -116.90579 | 64° | 66km/h | 11293m | -8.0m/s | -52.3°C | 0% | 0hPa | 0V | 00:00:00 | 00:00:00 | 00:00:00 | |
| WB7NNF | 2026-08-31 19:22:42 | 47.97858 | -116.91045 | 69° | 66km/h | 11464m | -8.2m/s | -53.4°C | 0% | 0hPa | 0V | 00:00:00 | 00:00:00 | 00:00:00 | |
| WB7NNF | 2026-08-31 19:22:21 | 47.97726 | -116.91478 | 65° | 66km/h | 11628m | -8.4m/s | -54.1°C | 0% | 0hPa | 0V | 00:00:00 | 00:00:00 | 00:00:00 | |
| WB7NNF | 2026-08-31 19:22:01 | 47.97567 | -116.91954 | 66° | 68km/h | 11806m | -8.5m/s | -55.4°C | 0% | 0hPa | 0V | 00:00:00 | 00:00:00 | 00:00:00 | |
| WB7NNF | 2026-08-31 19:21:40 | 47.97404 | -116.92449 | 63° | 69km/h | 11983m | -8.4m/s | -56.7°C | 0% | 0hPa | 0V | 00:00:00 | 00:00:00 | 00:00:00 | |
| WB7NNF | 2026-08-31 19:21:19 | 47.97248 | -116.92914 | 63° | 69km/h | 12155m | -8.5m/s | -57.8°C | 0% | 0hPa | 0V | 00:00:00 | 00:00:00 | 00:00:00 | |
| WB7NNF | 2026-08-31 19:20:59 | 47.97076 | -116.93386 | 61° | 68km/h | 12336m | -8.6m/s | -59.1°C | 0% | 0hPa | 0V | 00:00:00 | 00:00:00 | 00:00:00 | |
| WB7NNF | 2026-08-31 19:20:38 | 47.96899 | -116.93847 | 61° | 75km/h | 12510m | -8.8m/s | -60.0°C | 0% | 0hPa | 0V | 00:00:00 | 00:00:00 | 00:00:00 | |
| WB7NNF | 2026-08-31 19:20:18 | 47.96696 | -116.94370 | 60° | 80km/h | 12696m | -8.9m/s | -60.6°C | 0% | 0hPa | 0V | 00:00:00 | 00:00:00 | 00:00:00 | |
| WB7NNF | 2026-08-31 19:19:57 | 47.96514 | -116.94923 | 71° | 75km/h | 12876m | -8.7m/s | -60.1°C | 0% | 0hPa | 0V | 00:00:00 | 00:00:00 | 00:00:00 | |
| WB7NNF | 2026-08-31 19:19:37 | 47.96412 | -116.95441 | 74° | 60km/h | 13069m | -9.2m/s | -61.0°C | 0% | 0hPa | 0V | 00:00:00 | 00:00:00 | 00:00:00 | |
| WB7NNF | 2026-08-31 19:19:16 | 47.96276 | -116.95849 | 60° | 58km/h | 13254m | -9.3m/s | -60.0°C | 0% | 0hPa | 0V | 00:00:00 | 00:00:00 | 00:00:00 | |
| WB7NNF | 2026-08-31 19:18:56 | 47.96074 | -116.96228 | 54° | 66km/h | 13452m | -9.5m/s | -58.5°C | 0% | 0hPa | 0V | 00:00:00 | 00:00:00 | 00:00:00 | |
| WB7NNF | 2026-08-31 19:18:35 | 47.95874 | -116.96650 | 60° | 77km/h | 13647m | -9.7m/s | -58.2°C | 0% | 0hPa | 0V | 00:00:00 | 00:00:00 | 00:00:00 | |
| WB7NNF | 2026-08-31 19:18:15 | 47.95712 | -116.97131 | 61° | 62km/h | 13856m | -10.1m/s | -58.5°C | 0% | 0hPa | 0V | 00:00:00 | 00:00:00 | 00:00:00 | |
| WB7NNF | 2026-08-31 19:17:54 | 47.95544 | -116.97528 | 58° | 60km/h | 14060m | -10.3m/s | -58.3°C | 0% | 0hPa | 0V | 00:00:00 | 00:00:00 | 00:00:00 | |
| WB7NNF | 2026-08-31 19:17:34 | 47.95339 | -116.97920 | 60° | 69km/h | 14276m | -10.1m/s | -57.7°C | 0% | 0hPa | 0V | 00:00:00 | 00:00:00 | 00:00:00 | |
| WB7NNF | 2026-08-31 19:17:13 | 47.95198 | -116.98313 | 64° | 55km/h | 14482m | -10.5m/s | -56.7°C | 0% | 0hPa | 0V | 00:00:00 | 00:00:00 | 00:00:00 | |
| WB7NNF | 2026-08-31 19:16:53 | 47.95068 | -116.98715 | 66° | 51km/h | 14701m | -10.3m/s | -57.0°C | 0% | 0hPa | 0V | 00:00:00 | 00:00:00 | 00:00:00 | |
| WB7NNF | 2026-08-31 19:16:32 | 47.94944 | -116.99037 | 61° | 46km/h | 14918m | -10.0m/s | -56.9°C | 0% | 0hPa | 0V | 00:00:00 | 00:00:00 | 00:00:00 | |
| WB7NNF | 2026-08-31 19:16:11 | 47.94838 | -116.99296 | 55° | 33km/h | 15121m | -10.1m/s | -56.4°C | 0% | 0hPa | 0V | 00:00:00 | 00:00:00 | 00:00:00 | |
| WB7NNF | 2026-08-31 19:15:51 | 47.94725 | -116.99460 | 45° | 37km/h | 15339m | -8.7m/s | -56.8°C | 0% | 0hPa | 0V | 00:00:00 | 00:00:00 | 00:00:00 | |
| WB7NNF | 2026-08-31 19:15:30 | 47.94562 | -116.99677 | 48° | 46km/h | 15515m | -8.4m/s | -55.8°C | 0% | 0hPa | 0V | 00:00:00 | 00:00:00 | 00:00:00 | |
| WB7NNF | 2026-08-31 19:15:10 | 47.94421 | -116.99954 | 53° | 40km/h | 15700m | -8.9m/s | -55.6°C | 0% | 0hPa | 0V | 00:00:00 | 00:00:00 | 00:00:00 | |
| WB7NNF | 2026-08-31 19:14:49 | 47.94284 | -117.00185 | 50° | 47km/h | 15877m | -8.9m/s | -55.7°C | 0% | 0hPa | 0V | 00:00:00 | 00:00:00 | 00:00:00 | |
| WB7NNF | 2026-08-31 19:14:29 | 47.94127 | -117.00430 | 36° | 38km/h | 16068m | -8.7m/s | -55.9°C | 0% | 0hPa | 0V | 00:00:00 | 00:00:00 | 00:00:00 | |
| WB7NNF | 2026-08-31 19:14:08 | 47.93928 | -117.00562 | 21° | 49km/h | 16252m | -9.2m/s | -56.3°C | 0% | 0hPa | 0V | 00:00:00 | 00:00:00 | 00:00:00 | |
| WB7NNF | 2026-08-31 19:13:48 | 47.93708 | -117.00759 | 43° | 47km/h | 16449m | -9.4m/s | -57.0°C | 0% | 0hPa | 0V | 00:00:00 | 00:00:00 | 00:00:00 | |
| WB7NNF | 2026-08-31 19:13:27 | 47.93554 | -117.01019 | 49° | 40km/h | 16640m | -9.4m/s | -56.6°C | 0% | 0hPa | 0V | 00:00:00 | 00:00:00 | 00:00:00 | |
| WB7NNF | 2026-08-31 19:13:07 | 47.93395 | -117.01203 | 31° | 40km/h | 16847m | -9.7m/s | -55.8°C | 0% | 0hPa | 0V | 00:00:00 | 00:00:00 | 00:00:00 | |
| WB7NNF | 2026-08-31 19:12:46 | 47.93216 | -117.01403 | 39° | 46km/h | 17048m | -9.8m/s | -56.0°C | 0% | 0hPa | 0V | 00:00:00 | 00:00:00 | 00:00:00 | |
| WB7NNF | 2026-08-31 19:12:26 | 47.93024 | -117.01653 | 61° | 53km/h | 17263m | -10.1m/s | -54.8°C | 0% | 0hPa | 0V | 00:00:00 | 00:00:00 | 00:00:00 | |
| WB7NNF | 2026-08-31 19:12:06 | 47.92930 | -117.01957 | 68° | 42km/h | 17473m | -10.6m/s | -54.0°C | 0% | 0hPa | 0V | 00:00:00 | 00:00:00 | 00:00:00 | |
| WB7NNF | 2026-08-31 19:11:45 | 47.92830 | -117.02213 | 51° | 44km/h | 17695m | -10.5m/s | -54.4°C | 0% | 0hPa | 0V | 00:00:00 | 00:00:00 | 00:00:00 | |
| WB7NNF | 2026-08-31 19:11:24 | 47.92672 | -117.02502 | 47° | 46km/h | 17920m | -10.7m/s | -53.0°C | 0% | 0hPa | 0V | 00:00:00 | 00:00:00 | 00:00:00 | |
| WB7NNF | 2026-08-31 19:11:03 | 47.92502 | -117.02793 | 55° | 51km/h | 18138m | -10.9m/s | -52.9°C | 0% | 0hPa | 0V | 00:00:00 | 00:00:00 | 00:00:00 | |
| WB7NNF | 2026-08-31 19:10:43 | 47.92398 | -117.03044 | 53° | 24km/h | 18374m | -11.3m/s | -51.9°C | 0% | 0hPa | 0V | 00:00:00 | 00:00:00 | 00:00:00 | |
| WB7NNF | 2026-08-31 19:10:22 | 47.92277 | -117.03154 | 41° | 38km/h | 18605m | -11.4m/s | -52.3°C | 0% | 0hPa | 0V | 00:00:00 | 00:00:00 | 00:00:00 | |
| WB7NNF | 2026-08-31 19:10:02 | 47.92127 | -117.03402 | 51° | 35km/h | 18850m | -11.7m/s | -52.4°C | 0% | 0hPa | 0V | 00:00:00 | 00:00:00 | 00:00:00 | |
| WB7NNF | 2026-08-31 19:09:41 | 47.92059 | -117.03608 | 87° | 31km/h | 19091m | -11.9m/s | -52.5°C | 0% | 0hPa | 0V | 00:00:00 | 00:00:00 | 00:00:00 | |
| WB7NNF | 2026-08-31 19:09:21 | 47.92022 | -117.03743 | 33° | 22km/h | 19349m | -12.1m/s | -53.0°C | 0% | 0hPa | 0V | 00:00:00 | 00:00:00 | 00:00:00 | |
| WB7NNF | 2026-08-31 19:09:00 | 47.91935 | -117.03905 | 74° | 26km/h | 19597m | -12.5m/s | -52.2°C | 0% | 0hPa | 0V | 00:00:00 | 00:00:00 | 00:00:00 | |
| WB7NNF | 2026-08-31 19:08:40 | 47.91899 | -117.04015 | 14° | 9km/h | 19866m | -13.1m/s | -52.4°C | 0% | 0hPa | 0V | 00:00:00 | 00:00:00 | 00:00:00 | |
| WB7NNF | 2026-08-31 19:08:19 | 47.91851 | -117.04047 | 31° | 13km/h | 20124m | -13.0m/s | -54.1°C | 0% | 0hPa | 0V | 00:00:00 | 00:00:00 | 00:00:00 | |
| WB7NNF | 2026-08-31 19:07:59 | 47.91795 | -117.04156 | 73° | 20km/h | 20399m | -13.4m/s | -53.5°C | 0% | 0hPa | 0V | 00:00:00 | 00:00:00 | 00:00:00 | |
| WB7NNF | 2026-08-31 19:07:38 | 47.91756 | -117.04248 | 40° | 13km/h | 20666m | -13.4m/s | -52.9°C | 0% | 0hPa | 0V | 00:00:00 | 00:00:00 | 00:00:00 | |
| WB7NNF | 2026-08-31 19:07:18 | 47.91727 | -117.04263 | 317° | 9km/h | 20954m | -13.8m/s | -52.3°C | 0% | 0hPa | 0V | 00:00:00 | 00:00:00 | 00:00:00 | |
| WB7NNF | 2026-08-31 19:06:57 | 47.91670 | -117.04278 | 29° | 20km/h | 21236m | -14.5m/s | -52.2°C | 0% | 0hPa | 0V | 00:00:00 | 00:00:00 | 00:00:00 | |
| WB7NNF | 2026-08-31 19:06:37 | 47.91588 | -117.04346 | 349° | 26km/h | 21543m | -14.7m/s | -51.6°C | 0% | 0hPa | 0V | 00:00:00 | 00:00:00 | 00:00:00 | |
| WB7NNF | 2026-08-31 19:06:16 | 47.91414 | -117.04317 | 3° | 26km/h | 21859m | -15.1m/s | -51.3°C | 0% | 0hPa | 0V | 00:00:00 | 00:00:00 | 00:00:00 | |
| WB7NNF | 2026-08-31 19:05:55 | 47.91315 | -117.04343 | 352° | 9km/h | 22171m | -15.6m/s | -51.6°C | 0% | 0hPa | 0V | 00:00:00 | 00:00:00 | 00:00:00 | |
| WB7NNF | 2026-08-31 19:05:35 | 47.91273 | -117.04266 | 291° | 15km/h | 22508m | -16.0m/s | -52.0°C | 0% | 0hPa | 0V | 00:00:00 | 00:00:00 | 00:00:00 | |
| WB7NNF | 2026-08-31 19:05:14 | 47.91197 | -117.04164 | 337° | 22km/h | 22840m | -16.9m/s | -51.9°C | 0% | 0hPa | 0V | 00:00:00 | 00:00:00 | 00:00:00 | |
| WB7NNF | 2026-08-31 19:04:54 | 47.91119 | -117.04093 | 309° | 16km/h | 23196m | -16.8m/s | -51.4°C | 0% | 0hPa | 0V | 00:00:00 | 00:00:00 | 00:00:00 | |
| WB7NNF | 2026-08-31 19:04:33 | 47.91028 | -117.04059 | 8° | 31km/h | 23536m | -16.6m/s | -51.7°C | 0% | 0hPa | 0V | 00:00:00 | 00:00:00 | 00:00:00 | |
| WB7NNF | 2026-08-31 19:04:13 | 47.90916 | -117.04066 | 332° | 11km/h | 23895m | -17.1m/s | -51.2°C | 0% | 0hPa | 0V | 00:00:00 | 00:00:00 | 00:00:00 | |
| WB7NNF | 2026-08-31 19:03:52 | 47.90818 | -117.04062 | 40° | 20km/h | 24250m | -17.9m/s | -51.1°C | 0% | 0hPa | 0V | 00:00:00 | 00:00:00 | 00:00:00 | |
| WB7NNF | 2026-08-31 19:03:32 | 47.90797 | -117.04166 | 125° | 13km/h | 24633m | -18.9m/s | -50.8°C | 0% | 0hPa | 0V | 00:00:00 | 00:00:00 | 00:00:00 | |
| WB7NNF | 2026-08-31 19:03:10 | 47.90832 | -117.04178 | 273° | 5km/h | 25031m | -19.1m/s | -50.7°C | 0% | 0hPa | 0V | 00:00:00 | 00:00:00 | 00:00:00 | |
| WB7NNF | 2026-08-31 19:02:21 | 47.90729 | -117.04119 | 158° | 13km/h | 26007m | -21.1m/s | -47.7°C | 0% | 0hPa | 0V | 00:00:00 | 00:00:00 | 00:00:00 | |
| WB7NNF | 2026-08-31 19:01:57 | 47.90681 | -117.04009 | 348° | 29km/h | 26543m | -21.9m/s | -48.1°C | 0% | 0hPa | 0V | 00:00:00 | 00:00:00 | 00:00:00 | |
| WB7NNF | 2026-08-31 19:01:36 | 47.90571 | -117.04023 | 7° | 26km/h | 26988m | -22.7m/s | -47.4°C | 0% | 0hPa | 0V | 00:00:00 | 00:00:00 | 00:00:00 | |
| WB7NNF | 2026-08-31 19:00:40 | 47.90375 | -117.04055 | 345° | 9km/h | 28331m | -24.3m/s | -46.3°C | 0% | 0hPa | 0V | 00:00:00 | 00:00:00 | 00:00:00 | |
| WB7NNF | 2026-08-31 19:00:19 | 47.90375 | -117.04081 | 178° | 4km/h | 28832m | -25.4m/s | -46.8°C | 0% | 0hPa | 0V | 00:00:00 | 00:00:00 | 00:00:00 | |
| WB7NNF | 2026-08-31 18:59:59 | 47.90299 | -117.04100 | 51° | 13km/h | 29373m | -25.7m/s | -40.6°C | 0% | 0hPa | 0V | 00:00:00 | 00:00:00 | 00:00:00 | |
| WB7NNF | 2026-08-31 18:58:14 | 47.90303 | -117.04616 | 224° | 20km/h | 32449m | -27.7m/s | -40.3°C | 0% | 0hPa | 0V | 00:00:00 | 00:00:00 | 00:00:00 | |
| WB7NNF | 2026-08-31 18:57:54 | 47.90265 | -117.04737 | 139° | 44km/h | 32945m | -17.2m/s | -39.7°C | 0% | 0hPa | 0V | 00:00:00 | 00:00:00 | 00:00:00 | |
| WB7NNF | 2026-08-31 18:57:33 | 47.90216 | -117.04924 | 165° | 60km/h | 33453m | -21.5m/s | -37.9°C | 0% | 0hPa | 0V | 00:00:00 | 00:00:00 | 00:00:00 | |
| WB7NNF | 2026-08-31 18:56:51 | 47.90338 | -117.05249 | 89° | 5km/h | 34426m | -26.0m/s | -37.4°C | 0% | 0hPa | 0V | 00:00:00 | 00:00:00 | 00:00:00 | |
| WB7NNF | 2026-08-31 18:56:17 | 47.90362 | -117.05653 | 158° | 57km/h | 35008m | 6.5m/s | -35.9°C | 0% | 0hPa | 0V | 00:00:00 | 00:00:00 | 00:00:00 | |
| WB7NNF | 2026-08-31 18:55:56 | 47.90375 | -117.05778 | 17° | 40km/h | 34869m | 5.5m/s | -36.3°C | 0% | 0hPa | 0V | 00:00:00 | 00:00:00 | 00:00:00 | |
| WB7NNF | 2026-08-31 18:55:36 | 47.90351 | -117.06025 | 135° | 46km/h | 34725m | 6.6m/s | -36.2°C | 0% | 0hPa | 0V | 00:00:00 | 00:00:00 | 00:00:00 | |
| WB7NNF | 2026-08-31 18:55:15 | 47.90336 | -117.06203 | 277° | 27km/h | 34590m | 2.9m/s | -37.1°C | 0% | 0hPa | 0V | 00:00:00 | 00:00:00 | 00:00:00 | |
| WB7NNF | 2026-08-31 18:54:55 | 47.90304 | -117.06351 | 91° | 75km/h | 34448m | 11.1m/s | -37.5°C | 0% | 0hPa | 0V | 00:00:00 | 00:00:00 | 00:00:00 | |
| WB7NNF | 2026-08-31 18:54:34 | 47.90301 | -117.06506 | 277° | 31km/h | 34320m | 9.9m/s | -36.9°C | 0% | 0hPa | 0V | 00:00:00 | 00:00:00 | 00:00:00 | |
| WB7NNF | 2026-08-31 18:54:14 | 47.90246 | -117.06625 | 94° | 66km/h | 34173m | 8.6m/s | -36.9°C | 0% | 0hPa | 0V | 00:00:00 | 00:00:00 | 00:00:00 | |
| WB7NNF | 2026-08-31 18:53:53 | 47.90241 | -117.06733 | 250° | 37km/h | 34043m | 3.7m/s | -36.9°C | 0% | 0hPa | 0V | 00:00:00 | 00:00:00 | 00:00:00 | |
| WB7NNF | 2026-08-31 18:53:33 | 47.90242 | -117.06767 | 106° | 44km/h | 33901m | 8.0m/s | -37.1°C | 0% | 0hPa | 0V | 00:00:00 | 00:00:00 | 00:00:00 | |
| WB7NNF | 2026-08-31 18:53:12 | 47.90349 | -117.06782 | 242° | 46km/h | 33763m | 7.7m/s | -37.4°C | 0% | 0hPa | 0V | 00:00:00 | 00:00:00 | 00:00:00 | |
| WB7NNF | 2026-08-31 18:52:51 | 47.90440 | -117.06875 | 91° | 73km/h | 33634m | 1.4m/s | -38.1°C | 0% | 0hPa | 0V | 00:00:00 | 00:00:00 | 00:00:00 | |
| WB7NNF | 2026-08-31 18:52:31 | 47.90524 | -117.07067 | 332° | 44km/h | 33501m | 5.5m/s | -38.5°C | 0% | 0hPa | 0V | 00:00:00 | 00:00:00 | 00:00:00 | |
| WB7NNF | 2026-08-31 18:52:10 | 47.90437 | -117.07254 | 105° | 64km/h | 33370m | 7.0m/s | -39.3°C | 0% | 0hPa | 0V | 00:00:00 | 00:00:00 | 00:00:00 | |
| WB7NNF | 2026-08-31 18:51:50 | 47.90346 | -117.07385 | 12° | 78km/h | 33237m | 6.8m/s | -40.3°C | 0% | 0hPa | 0V | 00:00:00 | 00:00:00 | 00:00:00 | |
| WB7NNF | 2026-08-31 18:51:29 | 47.90254 | -117.07632 | 120° | 58km/h | 33107m | 11.9m/s | -40.3°C | 0% | 0hPa | 0V | 00:00:00 | 00:00:00 | 00:00:00 | |
| WB7NNF | 2026-08-31 18:51:09 | 47.90210 | -117.07812 | 22° | 51km/h | 32974m | 9.0m/s | -40.2°C | 0% | 0hPa | 0V | 00:00:00 | 00:00:00 | 00:00:00 | |
| WB7NNF | 2026-08-31 18:50:48 | 47.90207 | -117.08061 | 153° | 44km/h | 32838m | 5.0m/s | -39.9°C | 0% | 0hPa | 0V | 00:00:00 | 00:00:00 | 00:00:00 | |
| WB7NNF | 2026-08-31 18:50:28 | 47.90147 | -117.08252 | 80° | 68km/h | 32697m | 9.9m/s | -40.3°C | 0% | 0hPa | 0V | 00:00:00 | 00:00:00 | 00:00:00 | |
| WB7NNF | 2026-08-31 18:50:07 | 47.90141 | -117.08426 | 293° | 15km/h | 32565m | 3.1m/s | -41.0°C | 0% | 0hPa | 0V | 00:00:00 | 00:00:00 | 00:00:00 | |
| WB7NNF | 2026-08-31 18:49:47 | 47.90088 | -117.08588 | 83° | 44km/h | 32423m | 6.2m/s | -41.4°C | 0% | 0hPa | 0V | 00:00:00 | 00:00:00 | 00:00:00 | |
| WB7NNF | 2026-08-31 18:49:26 | 47.90079 | -117.08680 | 189° | 18km/h | 32292m | -0.5m/s | -41.4°C | 0% | 0hPa | 0V | 00:00:00 | 00:00:00 | 00:00:00 | |
| WB7NNF | 2026-08-31 18:49:06 | 47.90109 | -117.08769 | 94° | 37km/h | 32155m | 3.4m/s | -41.9°C | 0% | 0hPa | 0V | 00:00:00 | 00:00:00 | 00:00:00 | |
| WB7NNF | 2026-08-31 18:48:45 | 47.90154 | -117.08793 | 227° | 42km/h | 32026m | 4.5m/s | -42.8°C | 0% | 0hPa | 0V | 00:00:00 | 00:00:00 | 00:00:00 | |
| WB7NNF | 2026-08-31 18:48:25 | 47.90181 | -117.08827 | 66° | 44km/h | 31893m | 7.3m/s | -42.7°C | 0% | 0hPa | 0V | 00:00:00 | 00:00:00 | 00:00:00 | |
| WB7NNF | 2026-08-31 18:48:04 | 47.90215 | -117.08956 | 228° | 22km/h | 31761m | 7.8m/s | -42.9°C | 0% | 0hPa | 0V | 00:00:00 | 00:00:00 | 00:00:00 | |
| WB7NNF | 2026-08-31 18:47:43 | 47.90214 | -117.09038 | 48° | 27km/h | 31637m | 11.3m/s | -43.5°C | 0% | 0hPa | 0V | 00:00:00 | 00:00:00 | 00:00:00 | |
| WB7NNF | 2026-08-31 18:47:23 | 47.90242 | -117.09112 | 188° | 37km/h | 31505m | 10.2m/s | -44.4°C | 0% | 0hPa | 0V | 00:00:00 | 00:00:00 | 00:00:00 | |
| WB7NNF | 2026-08-31 18:47:02 | 47.90308 | -117.09184 | 60° | 37km/h | 31379m | 11.1m/s | -44.7°C | 0% | 0hPa | 0V | 00:00:00 | 00:00:00 | 00:00:00 | |
| WB7NNF | 2026-08-31 18:46:42 | 47.90390 | -117.09328 | 243° | 33km/h | 31244m | 8.6m/s | -44.8°C | 0% | 0hPa | 0V | 00:00:00 | 00:00:00 | 00:00:00 | |
| WB7NNF | 2026-08-31 18:46:21 | 47.90400 | -117.09455 | 100° | 57km/h | 31113m | 11.0m/s | -44.9°C | 0% | 0hPa | 0V | 00:00:00 | 00:00:00 | 00:00:00 | |
| WB7NNF | 2026-08-31 18:46:01 | 47.90395 | -117.09623 | 60° | 15km/h | 30981m | 8.4m/s | -45.4°C | 0% | 0hPa | 0V | 00:00:00 | 00:00:00 | 00:00:00 | |
| WB7NNF | 2026-08-31 18:45:40 | 47.90342 | -117.09740 | 58° | 35km/h | 30849m | 3.4m/s | -44.7°C | 0% | 0hPa | 0V | 00:00:00 | 00:00:00 | 00:00:00 | |
| WB7NNF | 2026-08-31 18:45:20 | 47.90372 | -117.09819 | 208° | 26km/h | 30709m | 7.1m/s | -44.4°C | 0% | 0hPa | 0V | 00:00:00 | 00:00:00 | 00:00:00 | |
| WB7NNF | 2026-08-31 18:44:59 | 47.90372 | -117.09868 | 70° | 35km/h | 30576m | 0.6m/s | -43.7°C | 0% | 0hPa | 0V | 00:00:00 | 00:00:00 | 00:00:00 | |
| WB7NNF | 2026-08-31 18:44:39 | 47.90428 | -117.09923 | 238° | 42km/h | 30437m | 3.9m/s | -43.1°C | 0% | 0hPa | 0V | 00:00:00 | 00:00:00 | 00:00:00 | |
| WB7NNF | 2026-08-31 18:44:17 | 47.90460 | -117.09974 | 122° | 44km/h | 30297m | 6.8m/s | -42.4°C | 0% | 0hPa | 0V | 00:00:00 | 00:00:00 | 00:00:00 | |
| WB7NNF | 2026-08-31 18:43:56 | 47.90495 | -117.10040 | 23° | 26km/h | 30157m | 10.4m/s | -42.6°C | 0% | 0hPa | 0V | 00:00:00 | 00:00:00 | 00:00:00 | |
| WB7NNF | 2026-08-31 18:43:35 | 47.90461 | -117.10208 | 226° | 5km/h | 30015m | 10.0m/s | -44.6°C | 0% | 0hPa | 0V | 00:00:00 | 00:00:00 | 00:00:00 | |
| WB7NNF | 2026-08-31 18:43:15 | 47.90415 | -117.10261 | 79° | 44km/h | 29882m | 8.0m/s | -44.4°C | 0% | 0hPa | 0V | 00:00:00 | 00:00:00 | 00:00:00 | |
| WB7NNF | 2026-08-31 18:42:54 | 47.90461 | -117.10332 | 191° | 37km/h | 29744m | 7.7m/s | -45.0°C | 0% | 0hPa | 0V | 00:00:00 | 00:00:00 | 00:00:00 | |
| WB7NNF | 2026-08-31 18:42:34 | 47.90563 | -117.10423 | 84° | 29km/h | 29605m | 4.0m/s | -45.0°C | 0% | 0hPa | 0V | 00:00:00 | 00:00:00 | 00:00:00 | |
| WB7NNF | 2026-08-31 18:42:13 | 47.90595 | -117.10510 | 78° | 9km/h | 29465m | 8.8m/s | -45.2°C | 0% | 0hPa | 0V | 00:00:00 | 00:00:00 | 00:00:00 | |
| WB7NNF | 2026-08-31 18:41:51 | 47.90533 | -117.10590 | 309° | 13km/h | 29325m | 10.2m/s | -45.7°C | 0% | 0hPa | 0V | 00:00:00 | 00:00:00 | 00:00:00 | |
| WB7NNF | 2026-08-31 18:41:30 | 47.90423 | -117.10599 | 13° | 44km/h | 29188m | 5.9m/s | -47.2°C | 0% | 0hPa | 0V | 00:00:00 | 00:00:00 | 00:00:00 | |
| WB7NNF | 2026-08-31 18:41:10 | 47.90342 | -117.10622 | 13° | 18km/h | 29048m | 6.1m/s | -47.6°C | 0% | 0hPa | 0V | 00:00:00 | 00:00:00 | 00:00:00 | |
| WB7NNF | 2026-08-31 18:40:49 | 47.90341 | -117.10619 | 110° | 18km/h | 28926m | 5.8m/s | -47.3°C | 0% | 0hPa | 0V | 00:00:00 | 00:00:00 | 00:00:00 | |
| WB7NNF | 2026-08-31 18:40:29 | 47.90335 | -117.10686 | 175° | 20km/h | 28792m | 7.3m/s | -47.1°C | 0% | 0hPa | 0V | 00:00:00 | 00:00:00 | 00:00:00 | |
| WB7NNF | 2026-08-31 18:40:08 | 47.90305 | -117.10775 | 25° | 33km/h | 28667m | 1.1m/s | -47.3°C | 0% | 0hPa | 0V | 00:00:00 | 00:00:00 | 00:00:00 | |
| WB7NNF | 2026-08-31 18:39:48 | 47.90261 | -117.10802 | 341° | 9km/h | 28546m | 8.4m/s | -46.7°C | 0% | 0hPa | 0V | 00:00:00 | 00:00:00 | 00:00:00 | |
| WB7NNF | 2026-08-31 18:39:27 | 47.90162 | -117.10769 | 357° | 9km/h | 28414m | 7.6m/s | -46.7°C | 0% | 0hPa | 0V | 00:00:00 | 00:00:00 | 00:00:00 | |
| WB7NNF | 2026-08-31 18:39:06 | 47.90069 | -117.10709 | 339° | 44km/h | 28291m | 5.3m/s | -47.0°C | 0% | 0hPa | 0V | 00:00:00 | 00:00:00 | 00:00:00 | |
| WB7NNF | 2026-08-31 18:38:46 | 47.89982 | -117.10699 | 7° | 18km/h | 28166m | 8.2m/s | -47.3°C | 0% | 0hPa | 0V | 00:00:00 | 00:00:00 | 00:00:00 | |
| WB7NNF | 2026-08-31 18:38:26 | 47.89921 | -117.10743 | 17° | 26km/h | 28043m | 8.6m/s | -47.3°C | 0% | 0hPa | 0V | 00:00:00 | 00:00:00 | 00:00:00 | |
| WB7NNF | 2026-08-31 18:38:05 | 47.89838 | -117.10807 | 334° | 11km/h | 27920m | 7.4m/s | -47.3°C | 0% | 0hPa | 0V | 00:00:00 | 00:00:00 | 00:00:00 | |
| WB7NNF | 2026-08-31 18:37:44 | 47.89708 | -117.10866 | 24° | 22km/h | 27790m | 6.2m/s | -47.4°C | 0% | 0hPa | 0V | 00:00:00 | 00:00:00 | 00:00:00 | |
| WB7NNF | 2026-08-31 18:37:22 | 47.89573 | -117.10876 | 90° | 29km/h | 27662m | 7.3m/s | -47.5°C | 0% | 0hPa | 0V | 00:00:00 | 00:00:00 | 00:00:00 | |
| WB7NNF | 2026-08-31 18:37:00 | 47.89458 | -117.10862 | 336° | 16km/h | 27521m | 7.2m/s | -47.2°C | 0% | 0hPa | 0V | 00:00:00 | 00:00:00 | 00:00:00 | |
| WB7NNF | 2026-08-31 18:36:39 | 47.89412 | -117.10811 | 309° | 11km/h | 27392m | 7.4m/s | -47.1°C | 0% | 0hPa | 0V | 00:00:00 | 00:00:00 | 00:00:00 | |
| WB7NNF | 2026-08-31 18:36:18 | 47.89351 | -117.10833 | 70° | 38km/h | 27269m | 4.2m/s | -47.2°C | 0% | 0hPa | 0V | 00:00:00 | 00:00:00 | 00:00:00 | |
| WB7NNF | 2026-08-31 18:35:58 | 47.89236 | -117.10848 | 339° | 18km/h | 27142m | 7.1m/s | -47.4°C | 0% | 0hPa | 0V | 00:00:00 | 00:00:00 | 00:00:00 | |
| WB7NNF | 2026-08-31 18:35:37 | 47.89096 | -117.10885 | 359° | 35km/h | 27017m | 7.1m/s | -47.6°C | 0% | 0hPa | 0V | 00:00:00 | 00:00:00 | 00:00:00 | |
| WB7NNF | 2026-08-31 18:35:17 | 47.88998 | -117.10908 | 348° | 27km/h | 26887m | 7.7m/s | -47.7°C | 0% | 0hPa | 0V | 00:00:00 | 00:00:00 | 00:00:00 | |
| WB7NNF | 2026-08-31 18:34:56 | 47.88888 | -117.10880 | 54° | 5km/h | 26768m | 8.7m/s | -47.8°C | 0% | 0hPa | 0V | 00:00:00 | 00:00:00 | 00:00:00 | |
| WB7NNF | 2026-08-31 18:34:36 | 47.88762 | -117.10840 | 348° | 53km/h | 26643m | 3.6m/s | -47.8°C | 0% | 0hPa | 0V | 00:00:00 | 00:00:00 | 00:00:00 | |
| WB7NNF | 2026-08-31 18:34:15 | 47.88600 | -117.10781 | 318° | 46km/h | 26522m | 3.7m/s | -47.7°C | 0% | 0hPa | 0V | 00:00:00 | 00:00:00 | 00:00:00 | |
| WB7NNF | 2026-08-31 18:33:53 | 47.88474 | -117.10650 | 287° | 49km/h | 26386m | 1.1m/s | -47.9°C | 0% | 0hPa | 0V | 00:00:00 | 00:00:00 | 00:00:00 | |
| WB7NNF | 2026-08-31 18:33:32 | 47.88429 | -117.10516 | 284° | 11km/h | 26271m | 6.1m/s | -48.3°C | 0% | 0hPa | 0V | 00:00:00 | 00:00:00 | 00:00:00 | |
| WB7NNF | 2026-08-31 18:33:12 | 47.88427 | -117.10484 | 150° | 15km/h | 26143m | 7.0m/s | -48.0°C | 0% | 0hPa | 0V | 00:00:00 | 00:00:00 | 00:00:00 | |
| WB7NNF | 2026-08-31 18:32:51 | 47.88451 | -117.10559 | 73° | 13km/h | 26024m | 7.7m/s | -48.0°C | 0% | 0hPa | 0V | 00:00:00 | 00:00:00 | 00:00:00 | |
| WB7NNF | 2026-08-31 18:32:31 | 47.88453 | -117.10693 | 82° | 49km/h | 25902m | 4.2m/s | -49.1°C | 0% | 0hPa | 0V | 00:00:00 | 00:00:00 | 00:00:00 | |
| WB7NNF | 2026-08-31 18:32:11 | 47.88387 | -117.10779 | 41° | 24km/h | 25788m | 2.2m/s | -49.6°C | 0% | 0hPa | 0V | 00:00:00 | 00:00:00 | 00:00:00 | |
| WB7NNF | 2026-08-31 18:31:50 | 47.88314 | -117.10747 | 344° | 18km/h | 25670m | 4.6m/s | -50.2°C | 0% | 0hPa | 0V | 00:00:00 | 00:00:00 | 00:00:00 | |
| WB7NNF | 2026-08-31 18:31:30 | 47.88177 | -117.10652 | 346° | 44km/h | 25556m | 7.6m/s | -50.6°C | 0% | 0hPa | 0V | 00:00:00 | 00:00:00 | 00:00:00 | |
| WB7NNF | 2026-08-31 18:31:09 | 47.88042 | -117.10509 | 327° | 31km/h | 25437m | 6.4m/s | -50.4°C | 0% | 0hPa | 0V | 00:00:00 | 00:00:00 | 00:00:00 | |
| WB7NNF | 2026-08-31 18:30:48 | 47.87975 | -117.10429 | 304° | 13km/h | 25326m | 6.1m/s | -50.6°C | 0% | 0hPa | 0V | 00:00:00 | 00:00:00 | 00:00:00 | |
| WB7NNF | 2026-08-31 18:30:28 | 47.87927 | -117.10289 | 301° | 44km/h | 25202m | 5.0m/s | -50.2°C | 0% | 0hPa | 0V | 00:00:00 | 00:00:00 | 00:00:00 | |
| WB7NNF | 2026-08-31 18:30:07 | 47.87926 | -117.10171 | 253° | 27km/h | 25078m | 6.9m/s | -49.9°C | 0% | 0hPa | 0V | 00:00:00 | 00:00:00 | 00:00:00 | |
| WB7NNF | 2026-08-31 18:29:46 | 47.87942 | -117.10076 | 250° | 18km/h | 24960m | 8.1m/s | -49.5°C | 0% | 0hPa | 0V | 00:00:00 | 00:00:00 | 00:00:00 | |
| WB7NNF | 2026-08-31 18:29:26 | 47.87969 | -117.10023 | 145° | 26km/h | 24837m | 5.3m/s | -49.3°C | 0% | 0hPa | 0V | 00:00:00 | 00:00:00 | 00:00:00 | |
| WB7NNF | 2026-08-31 18:29:05 | 47.88014 | -117.10035 | 182° | 24km/h | 24716m | 4.7m/s | -49.0°C | 0% | 0hPa | 0V | 00:00:00 | 00:00:00 | 00:00:00 | |
| WB7NNF | 2026-08-31 18:28:45 | 47.88097 | -117.10014 | 142° | 24km/h | 24595m | 5.0m/s | -49.0°C | 0% | 0hPa | 0V | 00:00:00 | 00:00:00 | 00:00:00 | |
| WB7NNF | 2026-08-31 18:28:24 | 47.88161 | -117.10063 | 127° | 29km/h | 24480m | 4.2m/s | -48.8°C | 0% | 0hPa | 0V | 00:00:00 | 00:00:00 | 00:00:00 | |
| WB7NNF | 2026-08-31 18:28:04 | 47.88197 | -117.10193 | 99° | 7km/h | 24361m | 6.8m/s | -48.5°C | 0% | 0hPa | 0V | 00:00:00 | 00:00:00 | 00:00:00 | |
| WB7NNF | 2026-08-31 18:27:43 | 47.88204 | -117.10335 | 103° | 16km/h | 24243m | 6.6m/s | -48.3°C | 0% | 0hPa | 0V | 00:00:00 | 00:00:00 | 00:00:00 | |
| WB7NNF | 2026-08-31 18:27:21 | 47.88157 | -117.10487 | 65° | 31km/h | 24124m | 4.3m/s | -48.6°C | 0% | 0hPa | 0V | 00:00:00 | 00:00:00 | 00:00:00 | |
| WB7NNF | 2026-08-31 18:27:00 | 47.88088 | -117.10607 | 36° | 29km/h | 24016m | 6.1m/s | -49.6°C | 0% | 0hPa | 0V | 00:00:00 | 00:00:00 | 00:00:00 | |
| WB7NNF | 2026-08-31 18:26:40 | 47.87985 | -117.10658 | 30° | 13km/h | 23905m | 6.5m/s | -49.4°C | 0% | 0hPa | 0V | 00:00:00 | 00:00:00 | 00:00:00 | |
| WB7NNF | 2026-08-31 18:26:19 | 47.87937 | -117.10665 | 332° | 26km/h | 23796m | 5.4m/s | -50.3°C | 0% | 0hPa | 0V | 00:00:00 | 00:00:00 | 00:00:00 | |
| WB7NNF | 2026-08-31 18:25:59 | 47.87888 | -117.10690 | 334° | 16km/h | 23683m | 5.4m/s | -50.5°C | 0% | 0hPa | 0V | 00:00:00 | 00:00:00 | 00:00:00 | |
| WB7NNF | 2026-08-31 18:25:38 | 47.87777 | -117.10738 | 14° | 29km/h | 23567m | 5.5m/s | -51.0°C | 0% | 0hPa | 0V | 00:00:00 | 00:00:00 | 00:00:00 | |
| WB7NNF | 2026-08-31 18:25:15 | 47.87643 | -117.10762 | 349° | 7km/h | 23439m | 5.7m/s | -50.7°C | 0% | 0hPa | 0V | 00:00:00 | 00:00:00 | 00:00:00 | |
| WB7NNF | 2026-08-31 18:24:54 | 47.87567 | -117.10754 | 290° | 5km/h | 23329m | 4.5m/s | -51.0°C | 0% | 0hPa | 0V | 00:00:00 | 00:00:00 | 00:00:00 | |
| WB7NNF | 2026-08-31 18:24:33 | 47.87539 | -117.10733 | 349° | 16km/h | 23203m | 6.7m/s | -50.7°C | 0% | 0hPa | 0V | 00:00:00 | 00:00:00 | 00:00:00 | |
| WB7NNF | 2026-08-31 18:24:11 | 47.87538 | -117.10678 | 227° | 9km/h | 23081m | 6.9m/s | -51.0°C | 0% | 0hPa | 0V | 00:00:00 | 00:00:00 | 00:00:00 | |
| WB7NNF | 2026-08-31 18:23:50 | 47.87532 | -117.10626 | 106° | 13km/h | 22957m | 4.4m/s | -51.4°C | 0% | 0hPa | 0V | 00:00:00 | 00:00:00 | 00:00:00 | |
| WB7NNF | 2026-08-31 18:23:29 | 47.87478 | -117.10610 | 327° | 18km/h | 22846m | 5.9m/s | -51.5°C | 0% | 0hPa | 0V | 00:00:00 | 00:00:00 | 00:00:00 | |
| WB7NNF | 2026-08-31 18:23:09 | 47.87424 | -117.10525 | 355° | 4km/h | 22724m | 2.3m/s | -51.7°C | 0% | 0hPa | 0V | 00:00:00 | 00:00:00 | 00:00:00 | |
| WB7NNF | 2026-08-31 18:22:47 | 47.87411 | -117.10408 | 240° | 26km/h | 22613m | 6.0m/s | -51.4°C | 0% | 0hPa | 0V | 00:00:00 | 00:00:00 | 00:00:00 | |
| WB7NNF | 2026-08-31 18:22:26 | 47.87455 | -117.10282 | 208° | 16km/h | 22499m | 4.6m/s | -51.3°C | 0% | 0hPa | 0V | 00:00:00 | 00:00:00 | 00:00:00 | |
| WB7NNF | 2026-08-31 18:22:05 | 47.87491 | -117.10240 | 49° | 13km/h | 22392m | 5.9m/s | -51.4°C | 0% | 0hPa | 0V | 00:00:00 | 00:00:00 | 00:00:00 | |
| WB7NNF | 2026-08-31 18:21:45 | 47.87518 | -117.10232 | 69° | 5km/h | 22285m | 4.9m/s | -51.4°C | 0% | 0hPa | 0V | 00:00:00 | 00:00:00 | 00:00:00 | |
| WB7NNF | 2026-08-31 18:21:24 | 47.87520 | -117.10272 | 48° | 22km/h | 22177m | 4.9m/s | -51.9°C | 0% | 0hPa | 0V | 00:00:00 | 00:00:00 | 00:00:00 | |
| WB7NNF | 2026-08-31 18:21:04 | 47.87456 | -117.10372 | 17° | 18km/h | 22064m | 5.8m/s | -52.0°C | 0% | 0hPa | 0V | 00:00:00 | 00:00:00 | 00:00:00 | |
| WB7NNF | 2026-08-31 18:20:44 | 47.87368 | -117.10429 | 8° | 35km/h | 21955m | 6.4m/s | -52.6°C | 0% | 0hPa | 0V | 00:00:00 | 00:00:00 | 00:00:00 | |
| WB7NNF | 2026-08-31 18:20:23 | 47.87212 | -117.10454 | 354° | 38km/h | 21847m | 5.4m/s | -52.9°C | 0% | 0hPa | 0V | 00:00:00 | 00:00:00 | 00:00:00 | |
| WB7NNF | 2026-08-31 18:20:02 | 47.87108 | -117.10408 | 358° | 26km/h | 21728m | 6.3m/s | -53.5°C | 0% | 0hPa | 0V | 00:00:00 | 00:00:00 | 00:00:00 | |
| WB7NNF | 2026-08-31 18:19:42 | 47.87026 | -117.10428 | 19° | 4km/h | 21610m | 5.2m/s | -53.5°C | 0% | 0hPa | 0V | 00:00:00 | 00:00:00 | 00:00:00 | |
| WB7NNF | 2026-08-31 18:19:21 | 47.86985 | -117.10523 | 48° | 16km/h | 21497m | 6.7m/s | -53.8°C | 0% | 0hPa | 0V | 00:00:00 | 00:00:00 | 00:00:00 | |
| WB7NNF | 2026-08-31 18:19:01 | 47.86906 | -117.10603 | 11° | 24km/h | 21381m | 6.1m/s | -53.7°C | 0% | 0hPa | 0V | 00:00:00 | 00:00:00 | 00:00:00 | |
| WB7NNF | 2026-08-31 18:18:41 | 47.86827 | -117.10622 | 351° | 15km/h | 21267m | 3.7m/s | -53.5°C | 0% | 0hPa | 0V | 00:00:00 | 00:00:00 | 00:00:00 | |
| WB7NNF | 2026-08-31 18:18:20 | 47.86818 | -117.10632 | 263° | 5km/h | 21154m | 5.2m/s | -53.0°C | 0% | 0hPa | 0V | 00:00:00 | 00:00:00 | 00:00:00 | |
| WB7NNF | 2026-08-31 18:17:59 | 47.86822 | -117.10629 | 70° | 7km/h | 21050m | 5.7m/s | -52.8°C | 0% | 0hPa | 0V | 00:00:00 | 00:00:00 | 00:00:00 | |
| WB7NNF | 2026-08-31 18:17:39 | 47.86825 | -117.10615 | 248° | 11km/h | 20939m | 4.5m/s | -53.6°C | 0% | 0hPa | 0V | 00:00:00 | 00:00:00 | 00:00:00 | |
| WB7NNF | 2026-08-31 18:17:18 | 47.86825 | -117.10674 | 105° | 22km/h | 20836m | 3.9m/s | -53.8°C | 0% | 0hPa | 0V | 00:00:00 | 00:00:00 | 00:00:00 | |
| WB7NNF | 2026-08-31 18:16:56 | 47.86785 | -117.10760 | 87° | 7km/h | 20723m | 4.1m/s | -53.8°C | 0% | 0hPa | 0V | 00:00:00 | 00:00:00 | 00:00:00 | |
| WB7NNF | 2026-08-31 18:16:36 | 47.86779 | -117.10813 | 106° | 29km/h | 20615m | 4.0m/s | -53.9°C | 0% | 0hPa | 0V | 00:00:00 | 00:00:00 | 00:00:00 | |
| WB7NNF | 2026-08-31 18:16:15 | 47.86741 | -117.10966 | 62° | 27km/h | 20509m | 4.9m/s | -54.0°C | 0% | 0hPa | 0V | 00:00:00 | 00:00:00 | 00:00:00 | |
| WB7NNF | 2026-08-31 18:15:54 | 47.86699 | -117.11127 | 54° | 33km/h | 20400m | 6.8m/s | -54.5°C | 0% | 0hPa | 0V | 00:00:00 | 00:00:00 | 00:00:00 | |
| WB7NNF | 2026-08-31 18:15:33 | 47.86625 | -117.11210 | 31° | 26km/h | 20298m | 6.1m/s | -54.4°C | 0% | 0hPa | 0V | 00:00:00 | 00:00:00 | 00:00:00 | |
| WB7NNF | 2026-08-31 18:15:13 | 47.86551 | -117.11295 | 349° | 15km/h | 20187m | 5.2m/s | -54.2°C | 0% | 0hPa | 0V | 00:00:00 | 00:00:00 | 00:00:00 | |
| WB7NNF | 2026-08-31 18:14:32 | 47.86418 | -117.11383 | 22° | 15km/h | 19969m | 4.3m/s | -52.6°C | 0% | 0hPa | 0V | 00:00:00 | 00:00:00 | 00:00:00 | |
| WB7NNF | 2026-08-31 18:14:11 | 47.86354 | -117.11440 | 50° | 13km/h | 19863m | 5.4m/s | -52.0°C | 0% | 0hPa | 0V | 00:00:00 | 00:00:00 | 00:00:00 | |
| WB7NNF | 2026-08-31 18:13:51 | 47.86303 | -117.11508 | 28° | 9km/h | 19752m | 6.2m/s | -51.8°C | 0% | 0hPa | 0V | 00:00:00 | 00:00:00 | 00:00:00 | |
| WB7NNF | 2026-08-31 18:13:30 | 47.86254 | -117.11631 | 62° | 22km/h | 19646m | 4.8m/s | -52.2°C | 0% | 0hPa | 0V | 00:00:00 | 00:00:00 | 00:00:00 | |
| WB7NNF | 2026-08-31 18:13:10 | 47.86168 | -117.11848 | 36° | 38km/h | 19536m | 5.8m/s | -53.4°C | 0% | 0hPa | 0V | 00:00:00 | 00:00:00 | 00:00:00 | |
| WB7NNF | 2026-08-31 18:12:49 | 47.86021 | -117.11986 | 20° | 46km/h | 19438m | 1.7m/s | -53.1°C | 0% | 0hPa | 0V | 00:00:00 | 00:00:00 | 00:00:00 | |
| WB7NNF | 2026-08-31 18:12:29 | 47.85904 | -117.12060 | 35° | 13km/h | 19331m | 3.2m/s | -52.6°C | 0% | 0hPa | 0V | 00:00:00 | 00:00:00 | 00:00:00 | |
| WB7NNF | 2026-08-31 18:12:08 | 47.85836 | -117.12134 | 33° | 27km/h | 19232m | 4.7m/s | -52.1°C | 0% | 0hPa | 0V | 00:00:00 | 00:00:00 | 00:00:00 | |
| WB7NNF | 2026-08-31 18:11:48 | 47.85796 | -117.12244 | 101° | 22km/h | 19117m | 5.6m/s | -51.9°C | 0% | 0hPa | 0V | 00:00:00 | 00:00:00 | 00:00:00 | |
| WB7NNF | 2026-08-31 18:11:27 | 47.85779 | -117.12445 | 74° | 27km/h | 19016m | 5.2m/s | -52.3°C | 0% | 0hPa | 0V | 00:00:00 | 00:00:00 | 00:00:00 | |
| WB7NNF | 2026-08-31 18:11:07 | 47.85705 | -117.12640 | 73° | 31km/h | 18916m | 6.1m/s | -52.4°C | 0% | 0hPa | 0V | 00:00:00 | 00:00:00 | 00:00:00 | |
| WB7NNF | 2026-08-31 18:10:25 | 47.85456 | -117.13062 | 39° | 38km/h | 18713m | 5.6m/s | -52.8°C | 0% | 0hPa | 0V | 00:00:00 | 00:00:00 | 00:00:00 | |
| WB7NNF | 2026-08-31 18:10:05 | 47.85306 | -117.13232 | 38° | 20km/h | 18605m | 4.7m/s | -52.4°C | 0% | 0hPa | 0V | 00:00:00 | 00:00:00 | 00:00:00 | |
| WB7NNF | 2026-08-31 18:09:44 | 47.85172 | -117.13313 | 33° | 33km/h | 18503m | 3.5m/s | -51.9°C | 0% | 0hPa | 0V | 00:00:00 | 00:00:00 | 00:00:00 | |
| WB7NNF | 2026-08-31 18:09:24 | 47.85082 | -117.13406 | 26° | 27km/h | 18397m | 4.3m/s | -52.3°C | 0% | 0hPa | 0V | 00:00:00 | 00:00:00 | 00:00:00 | |
| WB7NNF | 2026-08-31 18:09:02 | 47.85001 | -117.13613 | 56° | 35km/h | 18296m | 5.1m/s | -52.7°C | 0% | 0hPa | 0V | 00:00:00 | 00:00:00 | 00:00:00 | |
| WB7NNF | 2026-08-31 18:08:41 | 47.84837 | -117.13906 | 50° | 58km/h | 18189m | 5.6m/s | -53.3°C | 0% | 0hPa | 0V | 00:00:00 | 00:00:00 | 00:00:00 | |
| WB7NNF | 2026-08-31 18:08:20 | 47.84642 | -117.14189 | 40° | 57km/h | 18091m | 6.3m/s | -53.3°C | 0% | 0hPa | 0V | 00:00:00 | 00:00:00 | 00:00:00 | |
| WB7NNF | 2026-08-31 18:08:00 | 47.84454 | -117.14465 | 53° | 38km/h | 17987m | 5.5m/s | -53.7°C | 0% | 0hPa | 0V | 00:00:00 | 00:00:00 | 00:00:00 | |
| WB7NNF | 2026-08-31 18:07:39 | 47.84277 | -117.14733 | 45° | 49km/h | 17891m | 5.5m/s | -54.2°C | 0% | 0hPa | 0V | 00:00:00 | 00:00:00 | 00:00:00 | |
| WB7NNF | 2026-08-31 18:07:19 | 47.84097 | -117.14969 | 26° | 46km/h | 17789m | 5.4m/s | -54.1°C | 0% | 0hPa | 0V | 00:00:00 | 00:00:00 | 00:00:00 | |
| WB7NNF | 2026-08-31 18:06:59 | 47.83903 | -117.15210 | 42° | 44km/h | 17686m | 6.3m/s | -54.1°C | 0% | 0hPa | 0V | 00:00:00 | 00:00:00 | 00:00:00 | |
| WB7NNF | 2026-08-31 18:06:38 | 47.83756 | -117.15428 | 61° | 35km/h | 17586m | 6.7m/s | -53.5°C | 0% | 0hPa | 0V | 00:00:00 | 00:00:00 | 00:00:00 | |
| WB7NNF | 2026-08-31 18:06:17 | 47.83672 | -117.15665 | 75° | 40km/h | 17482m | 4.4m/s | -53.7°C | 0% | 0hPa | 0V | 00:00:00 | 00:00:00 | 00:00:00 | |
| WB7NNF | 2026-08-31 18:05:57 | 47.83556 | -117.15916 | 54° | 33km/h | 17377m | 5.6m/s | -54.0°C | 0% | 0hPa | 0V | 00:00:00 | 00:00:00 | 00:00:00 | |
| WB7NNF | 2026-08-31 18:05:36 | 47.83428 | -117.16195 | 51° | 62km/h | 17279m | 5.8m/s | -54.5°C | 0% | 0hPa | 0V | 00:00:00 | 00:00:00 | 00:00:00 | |
| WB7NNF | 2026-08-31 18:05:16 | 47.83237 | -117.16469 | 33° | 47km/h | 17175m | 6.0m/s | -55.0°C | 0% | 0hPa | 0V | 00:00:00 | 00:00:00 | 00:00:00 | |
| WB7NNF | 2026-08-31 18:04:55 | 47.83052 | -117.16627 | 33° | 37km/h | 17081m | 4.9m/s | -55.2°C | 0% | 0hPa | 0V | 00:00:00 | 00:00:00 | 00:00:00 | |
| WB7NNF | 2026-08-31 18:04:35 | 47.82864 | -117.16779 | 35° | 37km/h | 16979m | 3.8m/s | -55.5°C | 0% | 0hPa | 0V | 00:00:00 | 00:00:00 | 00:00:00 | |
| WB7NNF | 2026-08-31 18:04:14 | 47.82699 | -117.16968 | 43° | 31km/h | 16883m | 6.2m/s | -55.3°C | 0% | 0hPa | 0V | 00:00:00 | 00:00:00 | 00:00:00 | |
| WB7NNF | 2026-08-31 18:03:54 | 47.82535 | -117.17130 | 25° | 29km/h | 16784m | 5.1m/s | -55.3°C | 0% | 0hPa | 0V | 00:00:00 | 00:00:00 | 00:00:00 | |
| WB7NNF | 2026-08-31 18:03:33 | 47.82398 | -117.17323 | 68° | 35km/h | 16678m | 4.6m/s | -56.1°C | 0% | 0hPa | 0V | 00:00:00 | 00:00:00 | 00:00:00 | |
| WB7NNF | 2026-08-31 18:03:12 | 47.82263 | -117.17582 | 48° | 35km/h | 16581m | 4.5m/s | -56.4°C | 0% | 0hPa | 0V | 00:00:00 | 00:00:00 | 00:00:00 | |
| WB7NNF | 2026-08-31 18:02:52 | 47.82108 | -117.17870 | 47° | 47km/h | 16476m | 5.0m/s | -56.7°C | 0% | 0hPa | 0V | 00:00:00 | 00:00:00 | 00:00:00 | |
| WB7NNF | 2026-08-31 18:02:31 | 47.81941 | -117.18141 | 33° | 51km/h | 16378m | 5.7m/s | -56.2°C | 0% | 0hPa | 0V | 00:00:00 | 00:00:00 | 00:00:00 | |
| WB7NNF | 2026-08-31 18:02:11 | 47.81751 | -117.18358 | 45° | 37km/h | 16276m | 4.2m/s | -55.8°C | 0% | 0hPa | 0V | 00:00:00 | 00:00:00 | 00:00:00 | |
| WB7NNF | 2026-08-31 18:01:50 | 47.81571 | -117.18481 | 19° | 42km/h | 16180m | 5.9m/s | -55.4°C | 0% | 0hPa | 0V | 00:00:00 | 00:00:00 | 00:00:00 | |
| WB7NNF | 2026-08-31 18:01:30 | 47.81404 | -117.18601 | 38° | 29km/h | 16079m | 4.9m/s | -55.3°C | 0% | 0hPa | 0V | 00:00:00 | 00:00:00 | 00:00:00 | |
| WB7NNF | 2026-08-31 18:01:09 | 47.81277 | -117.18726 | 36° | 27km/h | 15981m | 6.1m/s | -54.8°C | 0% | 0hPa | 0V | 00:00:00 | 00:00:00 | 00:00:00 | |
| WB7NNF | 2026-08-31 18:00:49 | 47.81156 | -117.18911 | 53° | 35km/h | 15882m | 5.4m/s | -55.0°C | 0% | 0hPa | 0V | 00:00:00 | 00:00:00 | 00:00:00 | |
| WB7NNF | 2026-08-31 18:00:28 | 47.81038 | -117.19153 | 52° | 47km/h | 15787m | 4.5m/s | -54.8°C | 0% | 0hPa | 0V | 00:00:00 | 00:00:00 | 00:00:00 | |
| WB7NNF | 2026-08-31 18:00:08 | 47.80921 | -117.19411 | 59° | 38km/h | 15691m | 5.9m/s | -54.8°C | 0% | 0hPa | 0V | 00:00:00 | 00:00:00 | 00:00:00 | |
| WB7NNF | 2026-08-31 17:59:47 | 47.80828 | -117.19644 | 77° | 33km/h | 15597m | 2.9m/s | -54.9°C | 0% | 0hPa | 0V | 00:00:00 | 00:00:00 | 00:00:00 | |
| WB7NNF | 2026-08-31 17:59:27 | 47.80708 | -117.19922 | 52° | 46km/h | 15502m | 4.7m/s | -55.2°C | 0% | 0hPa | 0V | 00:00:00 | 00:00:00 | 00:00:00 | |
| WB7NNF | 2026-08-31 17:59:06 | 47.80604 | -117.20173 | 49° | 42km/h | 15415m | 4.7m/s | -56.2°C | 0% | 0hPa | 0V | 00:00:00 | 00:00:00 | 00:00:00 | |
| WB7NNF | 2026-08-31 17:58:46 | 47.80484 | -117.20406 | 77° | 31km/h | 15320m | 6.3m/s | -56.7°C | 0% | 0hPa | 0V | 00:00:00 | 00:00:00 | 00:00:00 | |
| WB7NNF | 2026-08-31 17:58:25 | 47.80424 | -117.20614 | 83° | 24km/h | 15221m | 4.1m/s | -56.8°C | 0% | 0hPa | 0V | 00:00:00 | 00:00:00 | 00:00:00 | |
| WB7NNF | 2026-08-31 17:58:04 | 47.80371 | -117.20840 | 66° | 47km/h | 15128m | 5.2m/s | -56.7°C | 0% | 0hPa | 0V | 00:00:00 | 00:00:00 | 00:00:00 | |
| WB7NNF | 2026-08-31 17:57:44 | 47.80303 | -117.21140 | 57° | 38km/h | 15029m | 3.6m/s | -56.4°C | 0% | 0hPa | 0V | 00:00:00 | 00:00:00 | 00:00:00 | |
| WB7NNF | 2026-08-31 17:57:23 | 47.80225 | -117.21412 | 71° | 42km/h | 14938m | 4.4m/s | -56.4°C | 0% | 0hPa | 0V | 00:00:00 | 00:00:00 | 00:00:00 | |
| WB7NNF | 2026-08-31 17:57:03 | 47.80115 | -117.21731 | 65° | 42km/h | 14840m | 5.4m/s | -56.4°C | 0% | 0hPa | 0V | 00:00:00 | 00:00:00 | 00:00:00 | |
| WB7NNF | 2026-08-31 17:56:42 | 47.80011 | -117.22016 | 62° | 44km/h | 14747m | 5.3m/s | -56.4°C | 0% | 0hPa | 0V | 00:00:00 | 00:00:00 | 00:00:00 | |
| WB7NNF | 2026-08-31 17:56:22 | 47.79906 | -117.22345 | 69° | 55km/h | 14651m | 3.8m/s | -56.4°C | 0% | 0hPa | 0V | 00:00:00 | 00:00:00 | 00:00:00 | |
| WB7NNF | 2026-08-31 17:56:01 | 47.79823 | -117.22684 | 77° | 47km/h | 14561m | 3.4m/s | -56.2°C | 0% | 0hPa | 0V | 00:00:00 | 00:00:00 | 00:00:00 | |
| WB7NNF | 2026-08-31 17:55:41 | 47.79714 | -117.23050 | 73° | 49km/h | 14466m | 4.8m/s | -56.5°C | 0% | 0hPa | 0V | 00:00:00 | 00:00:00 | 00:00:00 | |
| WB7NNF | 2026-08-31 17:55:20 | 47.79600 | -117.23446 | 61° | 58km/h | 14378m | 4.2m/s | -56.9°C | 0% | 0hPa | 0V | 00:00:00 | 00:00:00 | 00:00:00 | |
| WB7NNF | 2026-08-31 17:55:00 | 47.79478 | -117.23864 | 57° | 62km/h | 14286m | 4.1m/s | -57.5°C | 0% | 0hPa | 0V | 00:00:00 | 00:00:00 | 00:00:00 | |
| WB7NNF | 2026-08-31 17:54:39 | 47.79319 | -117.24273 | 61° | 68km/h | 14200m | 4.3m/s | -58.5°C | 0% | 0hPa | 0V | 00:00:00 | 00:00:00 | 00:00:00 | |
| WB7NNF | 2026-08-31 17:54:19 | 47.79140 | -117.24640 | 57° | 66km/h | 14109m | 4.3m/s | -58.6°C | 0% | 0hPa | 0V | 00:00:00 | 00:00:00 | 00:00:00 | |
| WB7NNF | 2026-08-31 17:53:58 | 47.78991 | -117.25002 | 54° | 62km/h | 14021m | 4.9m/s | -58.6°C | 0% | 0hPa | 0V | 00:00:00 | 00:00:00 | 00:00:00 | |
| WB7NNF | 2026-08-31 17:53:38 | 47.78827 | -117.25368 | 64° | 53km/h | 13930m | 4.4m/s | -58.8°C | 0% | 0hPa | 0V | 00:00:00 | 00:00:00 | 00:00:00 | |
| WB7NNF | 2026-08-31 17:53:17 | 47.78680 | -117.25714 | 75° | 68km/h | 13832m | 5.1m/s | -58.4°C | 0% | 0hPa | 0V | 00:00:00 | 00:00:00 | 00:00:00 | |
| WB7NNF | 2026-08-31 17:52:56 | 47.78551 | -117.26126 | 67° | 69km/h | 13738m | 4.4m/s | -58.6°C | 0% | 0hPa | 0V | 00:00:00 | 00:00:00 | 00:00:00 | |
| WB7NNF | 2026-08-31 17:52:36 | 47.78385 | -117.26543 | 59° | 53km/h | 13638m | 5.8m/s | -58.5°C | 0% | 0hPa | 0V | 00:00:00 | 00:00:00 | 00:00:00 | |
| WB7NNF | 2026-08-31 17:52:15 | 47.78228 | -117.26848 | 50° | 60km/h | 13549m | 3.2m/s | -59.3°C | 0% | 0hPa | 0V | 00:00:00 | 00:00:00 | 00:00:00 | |
| WB7NNF | 2026-08-31 17:51:55 | 47.78040 | -117.27242 | 47° | 64km/h | 13454m | 4.7m/s | -60.6°C | 0% | 0hPa | 0V | 00:00:00 | 00:00:00 | 00:00:00 | |
| WB7NNF | 2026-08-31 17:51:34 | 47.77866 | -117.27595 | 65° | 53km/h | 13365m | 3.7m/s | -60.7°C | 0% | 0hPa | 0V | 00:00:00 | 00:00:00 | 00:00:00 | |
| WB7NNF | 2026-08-31 17:51:14 | 47.77726 | -117.27984 | 65° | 58km/h | 13275m | 5.4m/s | -60.3°C | 0% | 0hPa | 0V | 00:00:00 | 00:00:00 | 00:00:00 | |
| WB7NNF | 2026-08-31 17:50:54 | 47.77610 | -117.28400 | 78° | 64km/h | 13187m | 3.5m/s | -60.5°C | 0% | 0hPa | 0V | 00:00:00 | 00:00:00 | 00:00:00 | |
| WB7NNF | 2026-08-31 17:50:33 | 47.77501 | -117.28910 | 78° | 68km/h | 13098m | 3.6m/s | -60.6°C | 0% | 0hPa | 0V | 00:00:00 | 00:00:00 | 00:00:00 | |
| WB7NNF | 2026-08-31 17:50:12 | 47.77408 | -117.29452 | 75° | 89km/h | 13013m | 3.1m/s | -60.2°C | 0% | 0hPa | 0V | 00:00:00 | 00:00:00 | 00:00:00 | |
| WB7NNF | 2026-08-31 17:49:52 | 47.77275 | -117.30052 | 73° | 73km/h | 12912m | 3.3m/s | -59.6°C | 0% | 0hPa | 0V | 00:00:00 | 00:00:00 | 00:00:00 | |
| WB7NNF | 2026-08-31 17:49:31 | 47.77112 | -117.30642 | 67° | 82km/h | 12828m | 4.7m/s | -59.3°C | 0% | 0hPa | 0V | 00:00:00 | 00:00:00 | 00:00:00 | |
| WB7NNF | 2026-08-31 17:49:11 | 47.76933 | -117.31241 | 60° | 88km/h | 12738m | 3.1m/s | -59.6°C | 0% | 0hPa | 0V | 00:00:00 | 00:00:00 | 00:00:00 | |
| WB7NNF | 2026-08-31 17:48:50 | 47.76747 | -117.31792 | 64° | 73km/h | 12655m | 5.4m/s | -60.4°C | 0% | 0hPa | 0V | 00:00:00 | 00:00:00 | 00:00:00 | |
| WB7NNF | 2026-08-31 17:48:30 | 47.76560 | -117.32339 | 74° | 80km/h | 12568m | 3.0m/s | -60.3°C | 0% | 0hPa | 0V | 00:00:00 | 00:00:00 | 00:00:00 | |
| WB7NNF | 2026-08-31 17:48:09 | 47.76391 | -117.32873 | 69° | 75km/h | 12480m | 3.5m/s | -59.8°C | 0% | 0hPa | 0V | 00:00:00 | 00:00:00 | 00:00:00 | |
| WB7NNF | 2026-08-31 17:47:48 | 47.76230 | -117.33360 | 65° | 68km/h | 12394m | 5.2m/s | -59.2°C | 0% | 0hPa | 0V | 00:00:00 | 00:00:00 | 00:00:00 | |
| WB7NNF | 2026-08-31 17:47:28 | 47.76072 | -117.33849 | 64° | 78km/h | 12304m | 4.3m/s | -58.9°C | 0% | 0hPa | 0V | 00:00:00 | 00:00:00 | 00:00:00 | |
| WB7NNF | 2026-08-31 17:47:07 | 47.75940 | -117.34296 | 71° | 68km/h | 12216m | 3.3m/s | -58.4°C | 0% | 0hPa | 0V | 00:00:00 | 00:00:00 | 00:00:00 | |
| WB7NNF | 2026-08-31 17:46:47 | 47.75801 | -117.34771 | 71° | 71km/h | 12126m | 3.6m/s | -57.8°C | 0% | 0hPa | 0V | 00:00:00 | 00:00:00 | 00:00:00 | |
| WB7NNF | 2026-08-31 17:46:26 | 47.75685 | -117.35237 | 68° | 62km/h | 12041m | 3.7m/s | -57.2°C | 0% | 0hPa | 0V | 00:00:00 | 00:00:00 | 00:00:00 | |
| WB7NNF | 2026-08-31 17:46:06 | 47.75551 | -117.35735 | 73° | 71km/h | 11953m | 5.2m/s | -56.7°C | 0% | 0hPa | 0V | 00:00:00 | 00:00:00 | 00:00:00 | |
| WB7NNF | 2026-08-31 17:45:45 | 47.75436 | -117.36183 | 72° | 60km/h | 11866m | 5.3m/s | -56.3°C | 0% | 0hPa | 0V | 00:00:00 | 00:00:00 | 00:00:00 | |
| WB7NNF | 2026-08-31 17:45:25 | 47.75313 | -117.36638 | 66° | 66km/h | 11775m | 3.7m/s | -55.7°C | 0% | 0hPa | 0V | 00:00:00 | 00:00:00 | 00:00:00 | |
| WB7NNF | 2026-08-31 17:45:04 | 47.75177 | -117.37090 | 63° | 69km/h | 11687m | 5.5m/s | -55.0°C | 0% | 0hPa | 0V | 00:00:00 | 00:00:00 | 00:00:00 | |
| WB7NNF | 2026-08-31 17:44:44 | 47.75033 | -117.37545 | 49° | 62km/h | 11592m | 4.4m/s | -54.5°C | 0% | 0hPa | 0V | 00:00:00 | 00:00:00 | 00:00:00 | |
| WB7NNF | 2026-08-31 17:44:23 | 47.74911 | -117.37984 | 69° | 75km/h | 11504m | 3.8m/s | -54.0°C | 0% | 0hPa | 0V | 00:00:00 | 00:00:00 | 00:00:00 | |
| WB7NNF | 2026-08-31 17:44:03 | 47.74792 | -117.38441 | 69° | 66km/h | 11416m | 2.8m/s | -53.3°C | 0% | 0hPa | 0V | 00:00:00 | 00:00:00 | 00:00:00 | |
| WB7NNF | 2026-08-31 17:43:42 | 47.74683 | -117.38875 | 73° | 64km/h | 11329m | 4.4m/s | -52.5°C | 0% | 0hPa | 0V | 00:00:00 | 00:00:00 | 00:00:00 | |
| WB7NNF | 2026-08-31 17:43:22 | 47.74565 | -117.39334 | 69° | 64km/h | 11238m | 4.0m/s | -51.7°C | 0% | 0hPa | 0V | 00:00:00 | 00:00:00 | 00:00:00 | |
| WB7NNF | 2026-08-31 17:43:01 | 47.74451 | -117.39780 | 79° | 66km/h | 11148m | 3.2m/s | -50.9°C | 0% | 0hPa | 0V | 00:00:00 | 00:00:00 | 00:00:00 | |
| WB7NNF | 2026-08-31 17:42:40 | 47.74339 | -117.40192 | 65° | 47km/h | 11060m | 4.5m/s | -50.4°C | 0% | 0hPa | 0V | 00:00:00 | 00:00:00 | 00:00:00 | |
| WB7NNF | 2026-08-31 17:42:20 | 47.74224 | -117.40619 | 63° | 51km/h | 10971m | 4.4m/s | -49.8°C | 0% | 0hPa | 0V | 00:00:00 | 00:00:00 | 00:00:00 | |
| WB7NNF | 2026-08-31 17:41:59 | 47.74109 | -117.41014 | 83° | 57km/h | 10887m | 4.5m/s | -49.3°C | 0% | 0hPa | 0V | 00:00:00 | 00:00:00 | 00:00:00 | |
| WB7NNF | 2026-08-31 17:41:39 | 47.73989 | -117.41419 | 62° | 60km/h | 10797m | 4.8m/s | -48.5°C | 0% | 0hPa | 0V | 00:00:00 | 00:00:00 | 00:00:00 | |
| WB7NNF | 2026-08-31 17:41:18 | 47.73871 | -117.41825 | 71° | 49km/h | 10713m | 4.4m/s | -47.8°C | 0% | 0hPa | 0V | 00:00:00 | 00:00:00 | 00:00:00 | |
| WB7NNF | 2026-08-31 17:40:58 | 47.73750 | -117.42237 | 66° | 66km/h | 10623m | 4.0m/s | -47.1°C | 0% | 0hPa | 0V | 00:00:00 | 00:00:00 | 00:00:00 | |
| WB7NNF | 2026-08-31 17:40:37 | 47.73640 | -117.42628 | 67° | 68km/h | 10534m | 4.2m/s | -46.6°C | 0% | 0hPa | 0V | 00:00:00 | 00:00:00 | 00:00:00 | |
| WB7NNF | 2026-08-31 17:40:17 | 47.73546 | -117.43060 | 77° | 46km/h | 10445m | 3.6m/s | -45.8°C | 0% | 0hPa | 0V | 00:00:00 | 00:00:00 | 00:00:00 | |
| WB7NNF | 2026-08-31 17:39:56 | 47.73442 | -117.43457 | 78° | 51km/h | 10360m | 4.8m/s | -45.0°C | 0% | 0hPa | 0V | 00:00:00 | 00:00:00 | 00:00:00 | |
| WB7NNF | 2026-08-31 17:39:36 | 47.73347 | -117.43889 | 69° | 64km/h | 10269m | 3.7m/s | -44.4°C | 0% | 0hPa | 0V | 00:00:00 | 00:00:00 | 00:00:00 | |
| WB7NNF | 2026-08-31 17:39:15 | 47.73256 | -117.44303 | 71° | 66km/h | 10183m | 4.1m/s | -43.5°C | 0% | 0hPa | 0V | 00:00:00 | 00:00:00 | 00:00:00 | |
| WB7NNF | 2026-08-31 17:38:55 | 47.73151 | -117.44737 | 78° | 60km/h | 10093m | 4.6m/s | -42.8°C | 0% | 0hPa | 0V | 00:00:00 | 00:00:00 | 00:00:00 | |
| WB7NNF | 2026-08-31 17:38:34 | 47.73077 | -117.45107 | 72° | 49km/h | 10007m | 3.9m/s | -42.0°C | 0% | 0hPa | 0V | 00:00:00 | 00:00:00 | 00:00:00 | |
| WB7NNF | 2026-08-31 17:38:14 | 47.72996 | -117.45494 | 68° | 51km/h | 9918m | 3.7m/s | -41.2°C | 0% | 0hPa | 0V | 00:00:00 | 00:00:00 | 00:00:00 | |
| WB7NNF | 2026-08-31 17:37:53 | 47.72923 | -117.45856 | 81° | 58km/h | 9829m | 4.0m/s | -40.5°C | 0% | 0hPa | 0V | 00:00:00 | 00:00:00 | 00:00:00 | |
| WB7NNF | 2026-08-31 17:37:32 | 47.72859 | -117.46210 | 87° | 37km/h | 9747m | 4.5m/s | -39.7°C | 0% | 0hPa | 0V | 00:00:00 | 00:00:00 | 00:00:00 | |
| WB7NNF | 2026-08-31 17:37:12 | 47.72819 | -117.46561 | 76° | 49km/h | 9654m | 3.5m/s | -38.9°C | 0% | 0hPa | 0V | 00:00:00 | 00:00:00 | 00:00:00 | |
| WB7NNF | 2026-08-31 17:36:51 | 47.72785 | -117.46892 | 78° | 49km/h | 9566m | 3.8m/s | -38.1°C | 0% | 0hPa | 0V | 00:00:00 | 00:00:00 | 00:00:00 | |
| WB7NNF | 2026-08-31 17:36:31 | 47.72743 | -117.47247 | 72° | 49km/h | 9478m | 2.8m/s | -37.3°C | 0% | 0hPa | 0V | 00:00:00 | 00:00:00 | 00:00:00 | |
| WB7NNF | 2026-08-31 17:36:10 | 47.72698 | -117.47599 | 70° | 51km/h | 9395m | 4.1m/s | -36.6°C | 0% | 0hPa | 0V | 00:00:00 | 00:00:00 | 00:00:00 | |
| WB7NNF | 2026-08-31 17:35:50 | 47.72642 | -117.47950 | 80° | 49km/h | 9306m | 3.8m/s | -35.9°C | 0% | 0hPa | 0V | 00:00:00 | 00:00:00 | 00:00:00 | |
| WB7NNF | 2026-08-31 17:35:29 | 47.72594 | -117.48275 | 65° | 44km/h | 9221m | 4.3m/s | -35.2°C | 0% | 0hPa | 0V | 00:00:00 | 00:00:00 | 00:00:00 | |
| WB7NNF | 2026-08-31 17:35:09 | 47.72539 | -117.48600 | 75° | 35km/h | 9131m | 3.4m/s | -34.5°C | 0% | 0hPa | 0V | 00:00:00 | 00:00:00 | 00:00:00 | |
| WB7NNF | 2026-08-31 17:34:48 | 47.72461 | -117.48901 | 79° | 35km/h | 9046m | 4.0m/s | -33.9°C | 0% | 0hPa | 0V | 00:00:00 | 00:00:00 | 00:00:00 | |
| WB7NNF | 2026-08-31 17:34:28 | 47.72357 | -117.49230 | 76° | 53km/h | 8955m | 2.8m/s | -33.3°C | 0% | 0hPa | 0V | 00:00:00 | 00:00:00 | 00:00:00 | |
| WB7NNF | 2026-08-31 17:34:08 | 47.72252 | -117.49567 | 65° | 46km/h | 8869m | 4.6m/s | -32.9°C | 0% | 0hPa | 0V | 00:00:00 | 00:00:00 | 00:00:00 | |
| WB7NNF | 2026-08-31 17:33:47 | 47.72133 | -117.49912 | 56° | 49km/h | 8775m | 4.8m/s | -32.2°C | 0% | 0hPa | 0V | 00:00:00 | 00:00:00 | 00:00:00 | |
| WB7NNF | 2026-08-31 17:33:26 | 47.72036 | -117.50173 | 72° | 46km/h | 8687m | 4.0m/s | -31.4°C | 0% | 0hPa | 0V | 00:00:00 | 00:00:00 | 00:00:00 | |
| WB7NNF | 2026-08-31 17:33:06 | 47.71930 | -117.50479 | 54° | 35km/h | 8600m | 4.7m/s | -30.6°C | 0% | 0hPa | 0V | 00:00:00 | 00:00:00 | 00:00:00 | |
| WB7NNF | 2026-08-31 17:32:45 | 47.71841 | -117.50792 | 61° | 35km/h | 8514m | 3.7m/s | -29.9°C | 0% | 0hPa | 0V | 00:00:00 | 00:00:00 | 00:00:00 | |
| WB7NNF | 2026-08-31 17:32:24 | 47.71757 | -117.51063 | 56° | 31km/h | 8430m | 3.6m/s | -29.2°C | 0% | 0hPa | 0V | 00:00:00 | 00:00:00 | 00:00:00 | |
| WB7NNF | 2026-08-31 17:32:04 | 47.71669 | -117.51353 | 68° | 46km/h | 8335m | 6.9m/s | -29.0°C | 0% | 0hPa | 0V | 00:00:00 | 00:00:00 | 00:00:00 | |
| WB7NNF | 2026-08-31 17:31:43 | 47.71559 | -117.51652 | 77° | 44km/h | 8254m | 2.3m/s | -28.6°C | 0% | 0hPa | 0V | 00:00:00 | 00:00:00 | 00:00:00 | |
| WB7NNF | 2026-08-31 17:31:23 | 47.71442 | -117.51938 | 76° | 42km/h | 8171m | 3.9m/s | -27.9°C | 0% | 0hPa | 0V | 00:00:00 | 00:00:00 | 00:00:00 | |
| WB7NNF | 2026-08-31 17:31:02 | 47.71343 | -117.52196 | 55° | 47km/h | 8089m | 4.5m/s | -27.3°C | 0% | 0hPa | 0V | 00:00:00 | 00:00:00 | 00:00:00 | |
| WB7NNF | 2026-08-31 17:30:42 | 47.71237 | -117.52462 | 68° | 46km/h | 8005m | 3.2m/s | -26.6°C | 0% | 0hPa | 0V | 00:00:00 | 00:00:00 | 00:00:00 | |
| WB7NNF | 2026-08-31 17:30:21 | 47.71139 | -117.52713 | 50° | 44km/h | 7919m | 4.9m/s | -25.9°C | 0% | 0hPa | 0V | 00:00:00 | 00:00:00 | 00:00:00 | |
| WB7NNF | 2026-08-31 17:29:59 | 47.71025 | -117.53004 | 56° | 40km/h | 7827m | 5.5m/s | -25.2°C | 0% | 0hPa | 0V | 00:00:00 | 00:00:00 | 00:00:00 | |
| WB7NNF | 2026-08-31 17:29:38 | 47.70912 | -117.53293 | 56° | 27km/h | 7730m | 3.4m/s | -24.4°C | 0% | 0hPa | 0V | 00:00:00 | 00:00:00 | 00:00:00 | |
| WB7NNF | 2026-08-31 17:29:18 | 47.70810 | -117.53574 | 58° | 49km/h | 7643m | 4.6m/s | -23.8°C | 0% | 0hPa | 0V | 00:00:00 | 00:00:00 | 00:00:00 | |
| WB7NNF | 2026-08-31 17:28:54 | 47.70692 | -117.53876 | 66° | 31km/h | 7544m | 4.5m/s | -23.1°C | 0% | 0hPa | 0V | 00:00:00 | 00:00:00 | 00:00:00 | |
| WB7NNF | 2026-08-31 17:28:31 | 47.70618 | -117.54164 | 55° | 31km/h | 7454m | 4.2m/s | -22.5°C | 0% | 0hPa | 0V | 00:00:00 | 00:00:00 | 00:00:00 | |
| WB7NNF | 2026-08-31 17:28:11 | 47.70564 | -117.54432 | 59° | 44km/h | 7365m | 3.2m/s | -21.8°C | 0% | 0hPa | 0V | 00:00:00 | 00:00:00 | 00:00:00 | |
| WB7NNF | 2026-08-31 17:27:50 | 47.70505 | -117.54689 | 82° | 46km/h | 7280m | 3.0m/s | -21.2°C | 0% | 0hPa | 0V | 00:00:00 | 00:00:00 | 00:00:00 | |
| WB7NNF | 2026-08-31 17:27:30 | 47.70442 | -117.54935 | 61° | 31km/h | 7190m | 5.2m/s | -20.5°C | 0% | 0hPa | 0V | 00:00:00 | 00:00:00 | 00:00:00 | |
| WB7NNF | 2026-08-31 17:27:09 | 47.70357 | -117.55178 | 51° | 27km/h | 7092m | 4.2m/s | -20.4°C | 0% | 0hPa | 0V | 00:00:00 | 00:00:00 | 00:00:00 | |
| WB7NNF | 2026-08-31 17:26:48 | 47.70295 | -117.55446 | 74° | 49km/h | 6999m | 6.4m/s | -19.6°C | 0% | 0hPa | 0V | 00:00:00 | 00:00:00 | 00:00:00 | |
| WB7NNF | 2026-08-31 17:26:28 | 47.70255 | -117.55765 | 92° | 49km/h | 6906m | 4.0m/s | -19.0°C | 0% | 0hPa | 0V | 00:00:00 | 00:00:00 | 00:00:00 | |
| WB7NNF | 2026-08-31 17:26:07 | 47.70199 | -117.56052 | 64° | 46km/h | 6799m | 4.0m/s | -18.1°C | 0% | 0hPa | 0V | 00:00:00 | 00:00:00 | 00:00:00 | |
| WB7NNF | 2026-08-31 17:25:47 | 47.70132 | -117.56339 | 77° | 35km/h | 6712m | 5.2m/s | -17.5°C | 0% | 0hPa | 0V | 00:00:00 | 00:00:00 | 00:00:00 | |
| WB7NNF | 2026-08-31 17:25:26 | 47.70055 | -117.56586 | 66° | 35km/h | 6630m | 5.3m/s | -16.9°C | 0% | 0hPa | 0V | 00:00:00 | 00:00:00 | 00:00:00 | |
| WB7NNF | 2026-08-31 17:25:06 | 47.69945 | -117.56814 | 39° | 38km/h | 6535m | 4.3m/s | -16.1°C | 0% | 0hPa | 0V | 00:00:00 | 00:00:00 | 00:00:00 | |
| WB7NNF | 2026-08-31 17:24:44 | 47.69841 | -117.57093 | 45° | 49km/h | 6430m | 4.8m/s | -15.1°C | 0% | 0hPa | 0V | 00:00:00 | 00:00:00 | 00:00:00 | |
| WB7NNF | 2026-08-31 17:24:23 | 47.69738 | -117.57361 | 68° | 33km/h | 6340m | 3.7m/s | -14.4°C | 0% | 0hPa | 0V | 00:00:00 | 00:00:00 | 00:00:00 | |
| WB7NNF | 2026-08-31 17:24:02 | 47.69645 | -117.57635 | 41° | 46km/h | 6251m | 6.2m/s | -15.2°C | 0% | 0hPa | 0V | 00:00:00 | 00:00:00 | 00:00:00 | |
| WB7NNF | 2026-08-31 17:23:35 | 47.69560 | -117.57975 | 64° | 40km/h | 6108m | 3.8m/s | -14.3°C | 0% | 0hPa | 0V | 00:00:00 | 00:00:00 | 00:00:00 | |
| WB7NNF | 2026-08-31 17:23:14 | 47.69536 | -117.58295 | 93° | 37km/h | 6008m | 3.8m/s | -13.6°C | 0% | 0hPa | 0V | 00:00:00 | 00:00:00 | 00:00:00 | |
| WB7NNF | 2026-08-31 17:22:54 | 47.69504 | -117.58592 | 74° | 29km/h | 5913m | 3.6m/s | -13.0°C | 0% | 0hPa | 0V | 00:00:00 | 00:00:00 | 00:00:00 |